Time,TemperatureF,DewpointF,PressureIn,WindDirection,WindDirectionDegrees,WindSpeedMPH,WindSpeedGustMPH,Humidity,HourlyPrecipIn,Conditions,Clouds,dailyrainin,SoftwareType,DateUTC
2013-03-23 00:00:00,28.1,23.0,30.04,WNW,300,2.0,5.0,81,0.00,,---,0.00,VWS V14.01,2013-03-23 04:00:00,
2013-03-23 00:01:00,28.1,23.0,30.04,WNW,300,1.0,5.0,81,0.00,,---,0.00,VWS V14.01,2013-03-23 04:01:00,
2013-03-23 00:06:00,28.1,23.0,30.04,WNW,291,3.0,4.0,81,0.00,,---,0.00,VWS V14.01,2013-03-23 04:06:00,
2013-03-23 00:11:00,28.0,22.9,30.04,WNW,283,2.0,4.0,81,0.00,,---,0.00,VWS V14.01,2013-03-23 04:11:00,
2013-03-23 00:16:00,27.9,22.8,30.04,WNW,300,1.0,4.0,81,0.00,,---,0.00,VWS V14.01,2013-03-23 04:16:00,
2013-03-23 00:22:00,27.8,22.7,30.04,West,264,0.0,4.0,81,0.00,,---,0.00,VWS V14.01,2013-03-23 04:22:00,
2013-03-23 00:27:00,27.6,22.5,30.05,WNW,282,0.0,4.0,81,0.00,,---,0.00,VWS V14.01,2013-03-23 04:27:00,
2013-03-23 00:32:00,27.6,22.5,30.05,West,274,1.0,4.0,81,0.00,,---,0.00,VWS V14.01,2013-03-23 04:32:00,
2013-03-23 00:37:00,27.5,22.5,30.05,West,259,1.0,4.0,81,0.00,,---,0.00,VWS V14.01,2013-03-23 04:37:00,
2013-03-23 00:42:00,27.3,22.5,30.05,WSW,245,2.0,4.0,82,0.00,,---,0.00,VWS V14.01,2013-03-23 04:42:00,
2013-03-23 00:47:00,27.2,22.4,30.05,WNW,282,0.0,4.0,82,0.00,,---,0.00,VWS V14.01,2013-03-23 04:47:00,
2013-03-23 00:52:00,27.1,22.4,30.05,West,271,1.0,4.0,82,0.00,,---,0.00,VWS V14.01,2013-03-23 04:52:00,
2013-03-23 00:57:00,27.0,22.2,30.05,NNW,340,3.0,4.0,82,0.00,,---,0.00,VWS V14.01,2013-03-23 04:57:00,
2013-03-23 01:02:00,27.0,22.2,30.05,WNW,290,1.0,2.0,82,0.00,,---,0.00,VWS V14.01,2013-03-23 05:02:00,
2013-03-23 01:08:00,27.0,22.2,30.05,WNW,301,2.0,4.0,82,0.00,,---,0.00,VWS V14.01,2013-03-23 05:08:00,
2013-03-23 01:13:00,27.0,22.5,30.05,WNW,296,2.0,5.0,83,0.00,,---,0.00,VWS V14.01,2013-03-23 05:13:00,
2013-03-23 01:18:00,27.0,22.2,30.05,NW,306,1.0,5.0,82,0.00,,---,0.00,VWS V14.01,2013-03-23 05:18:00,
2013-03-23 01:23:00,26.9,22.1,30.05,NW,304,1.0,5.0,82,0.00,,---,0.00,VWS V14.01,2013-03-23 05:23:00,
2013-03-23 01:28:00,26.7,22.2,30.05,West,266,0.0,5.0,83,0.00,,---,0.00,VWS V14.01,2013-03-23 05:28:00,
2013-03-23 01:33:00,26.6,22.1,30.05,West,274,2.0,5.0,83,0.00,,---,0.00,VWS V14.01,2013-03-23 05:33:00,
2013-03-23 01:38:00,26.4,22.0,30.05,WSW,252,2.0,5.0,83,0.00,,---,0.00,VWS V14.01,2013-03-23 05:38:00,
2013-03-23 01:43:00,26.2,21.8,30.05,West,276,1.0,5.0,83,0.00,,---,0.00,VWS V14.01,2013-03-23 05:43:00,
2013-03-23 01:49:00,26.2,22.0,30.05,WSW,257,2.0,5.0,84,0.00,,---,0.00,VWS V14.01,2013-03-23 05:49:00,
2013-03-23 01:54:00,26.2,22.0,30.05,West,277,1.0,5.0,84,0.00,,---,0.00,VWS V14.01,2013-03-23 05:54:00,
2013-03-23 01:59:00,26.0,21.8,30.05,WNW,291,0.0,5.0,84,0.00,,---,0.00,VWS V14.01,2013-03-23 05:59:00,
2013-03-23 02:04:00,26.0,21.8,30.05,WNW,290,3.0,4.0,84,0.00,,---,0.00,VWS V14.01,2013-03-23 06:04:00,
2013-03-23 02:09:00,26.0,21.8,30.05,WNW,284,1.0,4.0,84,0.00,,---,0.00,VWS V14.01,2013-03-23 06:09:00,
2013-03-23 02:14:00,25.9,21.7,30.05,WNW,288,1.0,4.0,84,0.00,,---,0.00,VWS V14.01,2013-03-23 06:14:00,
2013-03-23 02:19:00,25.8,21.6,30.05,WNW,300,0.0,4.0,84,0.00,,---,0.00,VWS V14.01,2013-03-23 06:19:00,
2013-03-23 02:24:00,25.6,21.7,30.05,WNW,297,0.0,4.0,85,0.00,,---,0.00,VWS V14.01,2013-03-23 06:24:00,
2013-03-23 02:29:00,25.4,21.5,30.06,NNE,13,0.0,4.0,85,0.00,,---,0.00,VWS V14.01,2013-03-23 06:29:00,
2013-03-23 02:34:00,25.3,21.4,30.06,NNW,330,0.0,4.0,85,0.00,,---,0.00,VWS V14.01,2013-03-23 06:34:00,
2013-03-23 02:40:00,25.0,21.1,30.06,NNW,330,0.0,4.0,85,0.00,,---,0.00,VWS V14.01,2013-03-23 06:40:00,
2013-03-23 02:45:00,24.6,20.7,30.06,NNW,330,0.0,4.0,85,0.00,,---,0.00,VWS V14.01,2013-03-23 06:45:00,
2013-03-23 02:50:00,24.4,20.8,30.06,NNW,332,0.0,4.0,86,0.00,,---,0.00,VWS V14.01,2013-03-23 06:50:00,
2013-03-23 02:55:00,24.3,20.7,30.06,NNW,332,0.0,4.0,86,0.00,,---,0.00,VWS V14.01,2013-03-23 06:55:00,
2013-03-23 03:00:00,24.0,20.4,30.06,NNW,330,0.0,4.0,86,0.00,,---,0.00,VWS V14.01,2013-03-23 07:00:00,
2013-03-23 03:05:00,23.8,20.5,30.06,NNW,330,0.0,0.0,87,0.00,,---,0.00,VWS V14.01,2013-03-23 07:05:00,
2013-03-23 03:10:00,23.4,20.1,30.05,NNW,330,0.0,0.0,87,0.00,,---,0.00,VWS V14.01,2013-03-23 07:10:00,
2013-03-23 03:15:00,23.2,20.2,30.06,NNW,330,0.0,1.0,88,0.00,,---,0.00,VWS V14.01,2013-03-23 07:15:00,
2013-03-23 03:20:00,23.1,20.1,30.05,NNW,330,0.0,1.0,88,0.00,,---,0.00,VWS V14.01,2013-03-23 07:20:00,
2013-03-23 03:25:00,22.8,19.8,30.05,NW,321,0.0,1.0,88,0.00,,---,0.00,VWS V14.01,2013-03-23 07:25:00,
2013-03-23 03:30:00,23.0,20.2,30.05,NW,321,0.0,1.0,89,0.00,,---,0.00,VWS V14.01,2013-03-23 07:30:00,
2013-03-23 03:35:00,22.8,20.0,30.05,NW,322,0.0,1.0,89,0.00,,---,0.00,VWS V14.01,2013-03-23 07:35:00,
2013-03-23 03:40:00,22.7,20.0,30.05,NW,322,0.0,1.0,89,0.00,,---,0.00,VWS V14.01,2013-03-23 07:40:00,
2013-03-23 03:46:00,22.8,20.3,30.05,NE,47,1.0,1.0,90,0.00,,---,0.00,VWS V14.01,2013-03-23 07:46:00,
2013-03-23 03:51:00,22.9,20.4,30.05,NE,47,0.0,1.0,90,0.00,,---,0.00,VWS V14.01,2013-03-23 07:51:00,
2013-03-23 03:56:00,22.8,20.3,30.05,NE,47,0.0,1.0,90,0.00,,---,0.00,VWS V14.01,2013-03-23 07:56:00,
2013-03-23 04:01:00,22.8,20.3,30.04,NE,47,0.0,1.0,90,0.00,,---,0.00,VWS V14.01,2013-03-23 08:01:00,
2013-03-23 04:06:00,22.7,20.2,30.04,NE,47,0.0,0.0,90,0.00,,---,0.00,VWS V14.01,2013-03-23 08:06:00,
2013-03-23 04:11:00,22.7,20.2,30.05,ENE,68,1.0,1.0,90,0.00,,---,0.00,VWS V14.01,2013-03-23 08:11:00,
2013-03-23 04:16:00,22.7,20.2,30.04,ENE,68,1.0,1.0,90,0.00,,---,0.00,VWS V14.01,2013-03-23 08:16:00,
2013-03-23 04:22:00,22.5,20.0,30.04,ENE,68,0.0,1.0,90,0.00,,---,0.00,VWS V14.01,2013-03-23 08:22:00,
2013-03-23 04:27:00,22.2,19.7,30.04,ENE,68,0.0,1.0,90,0.00,,---,0.00,VWS V14.01,2013-03-23 08:27:00,
2013-03-23 04:32:00,21.8,19.3,30.04,ENE,68,0.0,1.0,90,0.00,,---,0.00,VWS V14.01,2013-03-23 08:32:00,
2013-03-23 04:37:00,21.5,19.0,30.04,ENE,68,0.0,1.0,90,0.00,,---,0.00,VWS V14.01,2013-03-23 08:37:00,
2013-03-23 04:42:00,21.3,19.1,30.04,ENE,68,0.0,1.0,91,0.00,,---,0.00,VWS V14.01,2013-03-23 08:42:00,
2013-03-23 04:47:00,21.2,19.0,30.04,ENE,68,0.0,1.0,91,0.00,,---,0.00,VWS V14.01,2013-03-23 08:47:00,
2013-03-23 04:52:00,21.1,18.9,30.04,ENE,68,0.0,1.0,91,0.00,,---,0.00,VWS V14.01,2013-03-23 08:52:00,
2013-03-23 04:57:00,20.8,18.6,30.04,ENE,68,0.0,1.0,91,0.00,,---,0.00,VWS V14.01,2013-03-23 08:57:00,
2013-03-23 05:02:00,20.6,18.4,30.04,ENE,70,0.0,1.0,91,0.00,,---,0.00,VWS V14.01,2013-03-23 09:02:00,
2013-03-23 05:07:00,20.3,18.1,30.04,ENE,69,0.0,1.0,91,0.00,,---,0.00,VWS V14.01,2013-03-23 09:07:00,
2013-03-23 05:12:00,20.0,17.8,30.04,ENE,70,0.0,1.0,91,0.00,,---,0.00,VWS V14.01,2013-03-23 09:12:00,
2013-03-23 05:17:00,19.6,17.4,30.04,ENE,69,0.0,1.0,91,0.00,,---,0.00,VWS V14.01,2013-03-23 09:17:00,
2013-03-23 05:22:00,19.5,17.6,30.04,ENE,69,0.0,1.0,92,0.00,,---,0.00,VWS V14.01,2013-03-23 09:22:00,
2013-03-23 05:28:00,19.6,17.9,30.05,ENE,69,0.0,1.0,93,0.00,,---,0.00,VWS V14.01,2013-03-23 09:28:00,
2013-03-23 05:33:00,19.6,17.9,30.04,ENE,69,0.0,1.0,93,0.00,,---,0.00,VWS V14.01,2013-03-23 09:33:00,
2013-03-23 05:38:00,19.6,17.9,30.04,ENE,69,0.0,1.0,93,0.00,,---,0.00,VWS V14.01,2013-03-23 09:38:00,
2013-03-23 05:43:00,19.7,18.0,30.05,ENE,69,1.0,1.0,93,0.00,,---,0.00,VWS V14.01,2013-03-23 09:43:00,
2013-03-23 05:48:00,19.7,18.0,30.05,ENE,70,0.0,1.0,93,0.00,,---,0.00,VWS V14.01,2013-03-23 09:48:00,
2013-03-23 05:53:00,19.5,17.8,30.05,ENE,70,0.0,1.0,93,0.00,,---,0.00,VWS V14.01,2013-03-23 09:53:00,
2013-03-23 05:58:00,19.5,17.8,30.05,ENE,69,0.0,1.0,93,0.00,,---,0.00,VWS V14.01,2013-03-23 09:58:00,
2013-03-23 06:03:00,19.4,17.7,30.05,ENE,69,0.0,0.0,93,0.00,,---,0.00,VWS V14.01,2013-03-23 10:03:00,
2013-03-23 06:08:00,19.2,17.5,30.05,ENE,69,0.0,0.0,93,0.00,,---,0.00,VWS V14.01,2013-03-23 10:08:00,
2013-03-23 06:13:00,19.4,17.7,30.05,ENE,70,0.0,0.0,93,0.00,,---,0.00,VWS V14.01,2013-03-23 10:13:00,
2013-03-23 06:18:00,19.6,18.2,30.05,ENE,70,0.0,0.0,94,0.00,,---,0.00,VWS V14.01,2013-03-23 10:18:00,
2013-03-23 06:23:00,20.1,18.6,30.05,ENE,69,0.0,0.0,94,0.00,,---,0.00,VWS V14.01,2013-03-23 10:23:00,
2013-03-23 06:29:00,20.6,19.1,30.05,ENE,70,0.0,0.0,94,0.00,,---,0.00,VWS V14.01,2013-03-23 10:29:00,
2013-03-23 06:34:00,20.9,19.5,30.05,ENE,69,0.0,0.0,94,0.00,,---,0.00,VWS V14.01,2013-03-23 10:34:00,
2013-03-23 06:39:00,21.1,19.6,30.06,ENE,70,0.0,0.0,94,0.00,,---,0.00,VWS V14.01,2013-03-23 10:39:00,
2013-03-23 06:44:00,21.4,19.9,30.05,ENE,69,0.0,0.0,94,0.00,,---,0.00,VWS V14.01,2013-03-23 10:44:00,
2013-03-23 06:49:00,21.6,20.1,30.06,ENE,70,0.0,0.0,94,0.00,,---,0.00,VWS V14.01,2013-03-23 10:49:00,
2013-03-23 06:54:00,21.9,20.4,30.06,ENE,70,0.0,0.0,94,0.00,,---,0.00,VWS V14.01,2013-03-23 10:54:00,
2013-03-23 06:59:00,22.0,20.5,30.06,ENE,69,0.0,0.0,94,0.00,,---,0.00,VWS V14.01,2013-03-23 10:59:00,
2013-03-23 07:04:00,22.1,20.6,30.06,ENE,70,0.0,0.0,94,0.00,,---,0.00,VWS V14.01,2013-03-23 11:04:00,
2013-03-23 07:09:00,22.3,20.8,30.06,ENE,69,0.0,0.0,94,0.00,,---,0.00,VWS V14.01,2013-03-23 11:09:00,
2013-03-23 07:14:00,22.5,21.0,30.06,ENE,69,0.0,0.0,94,0.00,,---,0.00,VWS V14.01,2013-03-23 11:14:00,
2013-03-23 07:19:00,22.7,21.2,30.06,ENE,69,0.0,1.0,94,0.00,,---,0.00,VWS V14.01,2013-03-23 11:19:00,
2013-03-23 07:24:00,22.9,21.4,30.07,ENE,70,0.0,1.0,94,0.00,,---,0.00,VWS V14.01,2013-03-23 11:24:00,
2013-03-23 07:30:00,23.1,21.6,30.07,ENE,70,0.0,1.0,94,0.00,,---,0.00,VWS V14.01,2013-03-23 11:30:00,
2013-03-23 07:35:00,23.3,21.8,30.07,ENE,69,0.0,1.0,94,0.00,,---,0.00,VWS V14.01,2013-03-23 11:35:00,
2013-03-23 07:40:00,23.5,22.0,30.07,ENE,69,0.0,1.0,94,0.00,,---,0.00,VWS V14.01,2013-03-23 11:40:00,
2013-03-23 07:45:00,23.7,22.2,30.07,ENE,69,0.0,1.0,94,0.00,,---,0.00,VWS V14.01,2013-03-23 11:45:00,
2013-03-23 07:50:00,23.9,22.4,30.07,ENE,68,0.0,1.0,94,0.00,,---,0.00,VWS V14.01,2013-03-23 11:50:00,
2013-03-23 07:55:00,24.0,22.5,30.07,ENE,70,0.0,1.0,94,0.00,,---,0.00,VWS V14.01,2013-03-23 11:55:00,
2013-03-23 08:00:00,24.2,22.7,30.07,ENE,70,0.0,1.0,94,0.00,,---,0.00,VWS V14.01,2013-03-23 12:00:00,
2013-03-23 08:05:00,24.5,23.0,30.08,NNW,335,0.0,1.0,94,0.00,,---,0.00,VWS V14.01,2013-03-23 12:05:00,
2013-03-23 08:11:00,24.8,23.3,30.08,NNE,15,0.0,2.0,94,0.00,,---,0.00,VWS V14.01,2013-03-23 12:11:00,
2013-03-23 08:16:00,25.0,23.5,30.08,NNE,27,2.0,2.0,94,0.00,,---,0.00,VWS V14.01,2013-03-23 12:16:00,
2013-03-23 08:21:00,25.3,23.8,30.08,NE,34,1.0,3.0,94,0.00,,---,0.00,VWS V14.01,2013-03-23 12:21:00,
2013-03-23 08:26:00,25.5,23.8,30.07,NNE,12,0.0,3.0,93,0.00,,---,0.00,VWS V14.01,2013-03-23 12:26:00,
2013-03-23 08:32:00,25.8,24.1,30.08,NNW,347,1.0,3.0,93,0.00,,---,0.00,VWS V14.01,2013-03-23 12:32:00,
2013-03-23 08:46:00,26.6,24.6,30.08,NNW,336,1.0,1.0,92,0.00,,---,0.00,VWS V14.01,2013-03-23 12:46:00,
2013-03-23 08:51:00,26.9,24.6,30.08,NNW,342,2.0,3.0,91,0.00,,---,0.00,VWS V14.01,2013-03-23 12:51:00,
2013-03-23 08:56:00,27.1,24.3,30.08,NNE,23,1.0,5.0,89,0.00,,---,0.00,VWS V14.01,2013-03-23 12:56:00,
2013-03-23 09:01:00,27.4,24.3,30.08,NNW,331,3.0,6.0,88,0.00,,---,0.00,VWS V14.01,2013-03-23 13:01:00,
2013-03-23 09:06:00,27.6,24.2,30.09,NW,316,2.0,5.0,87,0.00,,---,0.00,VWS V14.01,2013-03-23 13:06:00,
2013-03-23 09:11:00,27.7,23.8,30.09,NW,322,6.0,6.0,85,0.00,,---,0.00,VWS V14.01,2013-03-23 13:11:00,
2013-03-23 09:16:00,27.9,24.0,30.09,NNE,23,4.0,6.0,85,0.00,,---,0.00,VWS V14.01,2013-03-23 13:16:00,
2013-03-23 09:21:00,28.0,23.5,30.09,NNW,348,7.0,8.0,83,0.00,,---,0.00,VWS V14.01,2013-03-23 13:21:00,
2013-03-23 09:26:00,28.0,22.9,30.09,NNE,15,6.0,9.0,81,0.00,,---,0.00,VWS V14.01,2013-03-23 13:26:00,
2013-03-23 09:32:00,28.0,22.9,30.09,NNE,19,6.0,9.0,81,0.00,,---,0.00,VWS V14.01,2013-03-23 13:32:00,
2013-03-23 09:37:00,28.0,22.9,30.09,NNE,18,7.0,9.0,81,0.00,,---,0.00,VWS V14.01,2013-03-23 13:37:00,
2013-03-23 09:42:00,28.1,22.7,30.09,NNE,22,4.0,9.0,80,0.00,,---,0.00,VWS V14.01,2013-03-23 13:42:00,
2013-03-23 09:47:00,28.1,23.0,30.09,North,9,7.0,9.0,81,0.00,,---,0.00,VWS V14.01,2013-03-23 13:47:00,
2013-03-23 09:52:00,28.1,22.7,30.09,NNE,22,4.0,9.0,80,0.00,,---,0.00,VWS V14.01,2013-03-23 13:52:00,
2013-03-23 09:57:00,28.3,23.2,30.10,NNW,330,3.0,9.0,81,0.00,,---,0.00,VWS V14.01,2013-03-23 13:57:00,
2013-03-23 10:02:00,28.3,22.9,30.10,NW,322,5.0,6.0,80,0.00,,---,0.00,VWS V14.01,2013-03-23 14:02:00,
2013-03-23 10:07:00,28.4,23.0,30.10,NNW,342,4.0,6.0,80,0.00,,---,0.00,VWS V14.01,2013-03-23 14:07:00,
2013-03-23 10:12:00,28.4,23.0,30.10,NE,34,4.0,7.0,80,0.00,,---,0.00,VWS V14.01,2013-03-23 14:12:00,
2013-03-23 10:17:00,28.4,23.0,30.10,NNE,29,3.0,8.0,80,0.00,,---,0.00,VWS V14.01,2013-03-23 14:17:00,
2013-03-23 10:23:00,28.5,23.1,30.10,NNW,336,5.0,8.0,80,0.00,,---,0.00,VWS V14.01,2013-03-23 14:23:00,
2013-03-23 10:28:00,28.4,22.7,30.10,NNW,330,5.0,8.0,79,0.00,,---,0.00,VWS V14.01,2013-03-23 14:28:00,
2013-03-23 10:33:00,28.5,22.8,30.11,NNW,336,2.0,8.0,79,0.00,,---,0.00,VWS V14.01,2013-03-23 14:33:00,
2013-03-23 10:38:00,28.5,22.8,30.11,NW,307,3.0,9.0,79,0.00,,---,0.00,VWS V14.01,2013-03-23 14:38:00,
2013-03-23 10:43:00,28.5,22.8,30.10,NNW,335,4.0,9.0,79,0.00,,---,0.00,VWS V14.01,2013-03-23 14:43:00,
2013-03-23 10:48:00,28.7,23.0,30.10,North,352,3.0,9.0,79,0.00,,---,0.00,VWS V14.01,2013-03-23 14:48:00,
2013-03-23 10:53:00,28.8,22.8,30.11,NW,321,3.0,9.0,78,0.00,,---,0.00,VWS V14.01,2013-03-23 14:53:00,
2013-03-23 10:58:00,28.9,23.2,30.11,NNE,19,7.0,9.0,79,0.00,,---,0.00,VWS V14.01,2013-03-23 14:58:00,
2013-03-23 11:04:00,28.8,22.8,30.11,WNW,290,4.0,5.0,78,0.00,,---,0.00,VWS V14.01,2013-03-23 15:04:00,
2013-03-23 11:09:00,28.8,22.8,30.11,West,264,1.0,5.0,78,0.00,,---,0.00,VWS V14.01,2013-03-23 15:09:00,
2013-03-23 11:14:00,29.0,23.0,30.11,NW,314,2.0,5.0,78,0.00,,---,0.00,VWS V14.01,2013-03-23 15:14:00,
2013-03-23 11:19:00,29.0,22.7,30.11,West,280,1.0,5.0,77,0.00,,---,0.00,VWS V14.01,2013-03-23 15:19:00,
2013-03-23 11:24:00,29.3,23.3,30.11,NE,50,1.0,5.0,78,0.00,,---,0.00,VWS V14.01,2013-03-23 15:24:00,
2013-03-23 11:29:00,29.5,23.5,30.12,NE,40,5.0,6.0,78,0.00,,---,0.00,VWS V14.01,2013-03-23 15:29:00,
2013-03-23 11:34:00,29.5,23.2,30.12,ENE,72,3.0,6.0,77,0.00,,---,0.00,VWS V14.01,2013-03-23 15:34:00,
2013-03-23 11:39:00,29.4,23.1,30.12,ENE,63,2.0,6.0,77,0.00,,---,0.00,VWS V14.01,2013-03-23 15:39:00,
2013-03-23 11:44:00,29.6,23.3,30.12,North,354,1.0,6.0,77,0.00,,---,0.00,VWS V14.01,2013-03-23 15:44:00,
2013-03-23 11:50:00,29.8,23.2,30.12,WSW,243,2.0,6.0,76,0.00,,---,0.00,VWS V14.01,2013-03-23 15:50:00,
2013-03-23 11:55:00,30.0,23.4,30.12,NW,323,2.0,6.0,76,0.00,,---,0.00,VWS V14.01,2013-03-23 15:55:00,
2013-03-23 12:00:00,30.1,23.1,30.12,North,352,0.0,6.0,75,0.00,,---,0.00,VWS V14.01,2013-03-23 16:00:00,
2013-03-23 12:05:00,30.3,23.3,30.12,NNE,32,1.0,4.0,75,0.00,,---,0.00,VWS V14.01,2013-03-23 16:05:00,
2013-03-23 12:10:00,30.2,22.9,30.12,WNW,283,2.0,4.0,74,0.00,,---,0.00,VWS V14.01,2013-03-23 16:10:00,
2013-03-23 12:15:00,30.2,23.2,30.12,SW,221,2.0,4.0,75,0.00,,---,0.00,VWS V14.01,2013-03-23 16:15:00,
2013-03-23 12:20:00,30.6,23.3,30.12,SSE,167,1.0,4.0,74,0.00,,---,0.00,VWS V14.01,2013-03-23 16:20:00,
2013-03-23 12:25:00,31.0,24.0,30.12,South,185,1.0,4.0,75,0.00,,---,0.00,VWS V14.01,2013-03-23 16:25:00,
2013-03-23 12:30:00,31.3,24.0,30.12,East,79,2.0,4.0,74,0.00,,---,0.00,VWS V14.01,2013-03-23 16:30:00,
2013-03-23 12:35:00,31.0,23.4,30.12,East,96,0.0,4.0,73,0.00,,---,0.00,VWS V14.01,2013-03-23 16:35:00,
2013-03-23 12:40:00,31.6,24.6,30.12,ENE,78,0.0,4.0,75,0.00,,---,0.00,VWS V14.01,2013-03-23 16:40:00,
2013-03-23 12:45:00,31.9,23.6,30.13,NNW,338,3.0,5.0,71,0.00,,---,0.00,VWS V14.01,2013-03-23 16:45:00,
2013-03-23 12:51:00,31.6,23.6,30.12,NE,37,4.0,5.0,72,0.00,,---,0.00,VWS V14.01,2013-03-23 16:51:00,
2013-03-23 12:55:00,31.4,23.4,30.12,NNE,26,2.0,5.0,72,0.00,,---,0.00,VWS V14.01,2013-03-23 16:55:00,
2013-03-23 13:01:00,31.4,23.8,30.13,NNW,339,3.0,5.0,73,0.00,,---,0.00,VWS V14.01,2013-03-23 17:01:00,
2013-03-23 13:06:00,31.6,23.6,30.13,NW,326,4.0,7.0,72,0.00,,---,0.00,VWS V14.01,2013-03-23 17:06:00,
2013-03-23 13:11:00,31.4,23.4,30.13,NW,314,0.0,7.0,72,0.00,,---,0.00,VWS V14.01,2013-03-23 17:11:00,
2013-03-23 13:16:00,31.4,23.4,30.12,East,79,3.0,7.0,72,0.00,,---,0.00,VWS V14.01,2013-03-23 17:16:00,
2013-03-23 13:21:00,31.5,23.5,30.12,North,352,1.0,7.0,72,0.00,,---,0.00,VWS V14.01,2013-03-23 17:21:00,
2013-03-23 13:26:00,31.8,23.8,30.13,SW,236,2.0,7.0,72,0.00,,---,0.00,VWS V14.01,2013-03-23 17:26:00,
2013-03-23 13:31:00,32.2,24.5,30.12,WNW,287,7.0,7.0,73,0.00,,---,0.00,VWS V14.01,2013-03-23 17:31:00,
2013-03-23 13:37:00,32.0,24.0,30.12,NNW,333,4.0,9.0,72,0.00,,---,0.00,VWS V14.01,2013-03-23 17:37:00,
2013-03-23 13:42:00,32.0,23.7,30.12,NW,321,6.0,9.0,71,0.00,,---,0.00,VWS V14.01,2013-03-23 17:42:00,
2013-03-23 13:47:00,32.1,24.1,30.12,NNW,335,5.0,9.0,72,0.00,,---,0.00,VWS V14.01,2013-03-23 17:47:00,
2013-03-23 13:52:00,32.2,23.5,30.12,NW,326,4.0,10.0,70,0.00,,---,0.00,VWS V14.01,2013-03-23 17:52:00,
2013-03-23 13:57:00,32.0,23.7,30.12,WNW,298,4.0,10.0,71,0.00,,---,0.00,VWS V14.01,2013-03-23 17:57:00,
2013-03-23 14:02:00,32.0,23.7,30.12,WNW,295,4.0,6.0,71,0.00,,---,0.00,VWS V14.01,2013-03-23 18:02:00,
2013-03-23 14:07:00,32.1,23.8,30.12,North,5,4.0,8.0,71,0.00,,---,0.00,VWS V14.01,2013-03-23 18:07:00,
2013-03-23 14:12:00,32.5,24.2,30.12,WNW,287,2.0,8.0,71,0.00,,---,0.00,VWS V14.01,2013-03-23 18:12:00,
2013-03-23 14:17:00,32.8,24.1,30.12,NNW,343,4.0,8.0,70,0.00,,---,0.00,VWS V14.01,2013-03-23 18:17:00,
2013-03-23 14:22:00,32.6,23.6,30.11,NNW,330,2.0,8.0,69,0.00,,---,0.00,VWS V14.01,2013-03-23 18:22:00,
2013-03-23 14:27:00,32.7,24.7,30.11,North,350,2.0,8.0,72,0.00,,---,0.00,VWS V14.01,2013-03-23 18:27:00,
2013-03-23 14:32:00,32.8,24.1,30.11,NW,308,2.0,8.0,70,0.00,,---,0.00,VWS V14.01,2013-03-23 18:32:00,
2013-03-23 14:37:00,33.2,24.8,30.11,WNW,300,2.0,10.0,71,0.00,,---,0.00,VWS V14.01,2013-03-23 18:37:00,
2013-03-23 14:42:00,33.2,24.5,30.10,West,278,3.0,10.0,70,0.00,,---,0.00,VWS V14.01,2013-03-23 18:42:00,
2013-03-23 14:48:00,33.4,24.3,30.11,NNW,328,4.0,10.0,69,0.00,,---,0.00,VWS V14.01,2013-03-23 18:48:00,
2013-03-23 14:53:00,33.3,24.2,30.10,NNW,342,4.0,10.0,69,0.00,,---,0.00,VWS V14.01,2013-03-23 18:53:00,
2013-03-23 14:58:00,33.2,24.1,30.10,NE,53,5.0,10.0,69,0.00,,---,0.00,VWS V14.01,2013-03-23 18:58:00,
2013-03-23 15:03:00,33.1,24.0,30.10,North,352,4.0,7.0,69,0.00,,---,0.00,VWS V14.01,2013-03-23 19:03:00,
2013-03-23 15:08:00,33.5,24.8,30.10,NNE,16,4.0,9.0,70,0.00,,---,0.00,VWS V14.01,2013-03-23 19:08:00,
2013-03-23 15:13:00,33.5,24.4,30.11,North,358,5.0,9.0,69,0.00,,---,0.00,VWS V14.01,2013-03-23 19:13:00,
2013-03-23 15:18:00,33.4,24.3,30.10,North,357,2.0,9.0,69,0.00,,---,0.00,VWS V14.01,2013-03-23 19:18:00,
2013-03-23 15:23:00,33.3,24.2,30.10,NW,319,5.0,9.0,69,0.00,,---,0.00,VWS V14.01,2013-03-23 19:23:00,
2013-03-23 15:28:00,33.3,24.6,30.10,NNE,15,8.0,9.0,70,0.00,,---,0.00,VWS V14.01,2013-03-23 19:28:00,
2013-03-23 15:34:00,33.1,24.0,30.10,NE,34,2.0,9.0,69,0.00,,---,0.00,VWS V14.01,2013-03-23 19:34:00,
2013-03-23 15:39:00,33.1,24.4,30.10,NE,39,4.0,9.0,70,0.00,,---,0.00,VWS V14.01,2013-03-23 19:39:00,
2013-03-23 15:44:00,33.1,23.7,30.10,NW,319,2.0,9.0,68,0.00,,---,0.00,VWS V14.01,2013-03-23 19:44:00,
2013-03-23 15:49:00,33.1,23.7,30.10,NW,316,4.0,9.0,68,0.00,,---,0.00,VWS V14.01,2013-03-23 19:49:00,
2013-03-23 15:54:00,33.2,23.8,30.10,WNW,290,5.0,9.0,68,0.00,,---,0.00,VWS V14.01,2013-03-23 19:54:00,
2013-03-23 15:59:00,33.5,24.8,30.10,WNW,296,5.0,9.0,70,0.00,,---,0.00,VWS V14.01,2013-03-23 19:59:00,
2013-03-23 16:04:00,33.4,24.0,30.09,NNW,335,5.0,7.0,68,0.00,,---,0.00,VWS V14.01,2013-03-23 20:04:00,
2013-03-23 16:09:00,33.4,24.3,30.09,NE,43,2.0,8.0,69,0.00,,---,0.00,VWS V14.01,2013-03-23 20:09:00,
2013-03-23 16:14:00,33.3,23.9,30.09,WNW,290,2.0,9.0,68,0.00,,---,0.00,VWS V14.01,2013-03-23 20:14:00,
2013-03-23 16:20:00,33.3,24.2,30.09,NNW,328,3.0,9.0,69,0.00,,---,0.00,VWS V14.01,2013-03-23 20:20:00,
2013-03-23 16:25:00,33.2,23.8,30.09,WNW,295,4.0,9.0,68,0.00,,---,0.00,VWS V14.01,2013-03-23 20:25:00,
2013-03-23 16:30:00,33.2,23.8,30.09,NW,320,2.0,9.0,68,0.00,,---,0.00,VWS V14.01,2013-03-23 20:30:00,
2013-03-23 16:35:00,33.3,24.2,30.09,NNW,348,3.0,9.0,69,0.00,,---,0.00,VWS V14.01,2013-03-23 20:35:00,
2013-03-23 16:40:00,33.3,24.2,30.10,NE,34,6.0,9.0,69,0.00,,---,0.00,VWS V14.01,2013-03-23 20:40:00,
2013-03-23 16:45:00,33.1,24.0,30.10,NNW,330,5.0,9.0,69,0.00,,---,0.00,VWS V14.01,2013-03-23 20:45:00,
2013-03-23 16:50:00,33.0,24.0,30.10,WNW,291,6.0,9.0,69,0.00,,---,0.00,VWS V14.01,2013-03-23 20:50:00,
2013-03-23 16:55:00,32.9,23.9,30.11,West,273,5.0,9.0,69,0.00,,---,0.00,VWS V14.01,2013-03-23 20:55:00,
2013-03-23 17:00:00,32.9,23.9,30.11,WNW,291,3.0,9.0,69,0.00,,---,0.00,VWS V14.01,2013-03-23 21:00:00,
2013-03-23 17:05:00,33.0,23.6,30.10,WNW,285,1.0,4.0,68,0.00,,---,0.00,VWS V14.01,2013-03-23 21:05:00,
2013-03-23 17:10:00,33.1,23.7,30.10,West,280,1.0,5.0,68,0.00,,---,0.00,VWS V14.01,2013-03-23 21:10:00,
2013-03-23 17:16:00,33.2,23.8,30.10,NNW,335,1.0,5.0,68,0.00,,---,0.00,VWS V14.01,2013-03-23 21:16:00,
2013-03-23 17:21:00,33.3,23.5,30.10,WSW,250,1.0,5.0,67,0.00,,---,0.00,VWS V14.01,2013-03-23 21:21:00,
2013-03-23 17:26:00,33.5,24.1,30.10,NNE,26,1.0,5.0,68,0.00,,---,0.00,VWS V14.01,2013-03-23 21:26:00,
2013-03-23 17:31:00,33.7,23.9,30.11,West,269,3.0,6.0,67,0.00,,---,0.00,VWS V14.01,2013-03-23 21:31:00,
2013-03-23 17:36:00,33.6,23.8,30.11,ENE,60,2.0,6.0,67,0.00,,---,0.00,VWS V14.01,2013-03-23 21:36:00,
2013-03-23 17:41:00,33.6,24.2,30.11,West,276,1.0,6.0,68,0.00,,---,0.00,VWS V14.01,2013-03-23 21:41:00,
2013-03-23 17:46:00,33.5,23.7,30.11,West,281,2.0,6.0,67,0.00,,---,0.00,VWS V14.01,2013-03-23 21:46:00,
2013-03-23 17:52:00,33.6,24.5,30.11,WNW,295,4.0,6.0,69,0.00,,---,0.00,VWS V14.01,2013-03-23 21:52:00,
2013-03-23 17:57:00,33.6,24.2,30.10,WNW,295,3.0,6.0,68,0.00,,---,0.00,VWS V14.01,2013-03-23 21:57:00,
2013-03-23 18:02:00,34.1,24.7,30.09,NNW,329,3.0,6.0,68,0.00,,---,0.00,VWS V14.01,2013-03-23 22:02:00,
2013-03-23 18:07:00,34.4,25.3,30.09,NE,45,4.0,8.0,69,0.00,,---,0.00,VWS V14.01,2013-03-23 22:07:00,
2013-03-23 18:12:00,34.2,24.4,30.09,NE,55,1.0,8.0,67,0.00,,---,0.00,VWS V14.01,2013-03-23 22:12:00,
2013-03-23 18:17:00,34.3,24.1,30.10,NNE,29,2.0,8.0,66,0.00,,---,0.00,VWS V14.01,2013-03-23 22:17:00,
2013-03-23 18:22:00,33.9,24.1,30.10,NW,321,4.0,8.0,67,0.00,,---,0.00,VWS V14.01,2013-03-23 22:22:00,
2013-03-23 18:27:00,33.6,23.8,30.10,NE,36,3.0,8.0,67,0.00,,---,0.00,VWS V14.01,2013-03-23 22:27:00,
2013-03-23 18:33:00,33.3,23.9,30.10,NW,319,5.0,8.0,68,0.00,,---,0.00,VWS V14.01,2013-03-23 22:33:00,
2013-03-23 18:38:00,33.1,23.7,30.10,North,1,3.0,8.0,68,0.00,,---,0.00,VWS V14.01,2013-03-23 22:38:00,
2013-03-23 18:43:00,33.2,24.1,30.10,NW,326,2.0,8.0,69,0.00,,---,0.00,VWS V14.01,2013-03-23 22:43:00,
2013-03-23 18:48:00,33.5,23.7,30.10,West,264,0.0,8.0,67,0.00,,---,0.00,VWS V14.01,2013-03-23 22:48:00,
2013-03-23 18:53:00,33.3,23.5,30.10,West,276,0.0,8.0,67,0.00,,---,0.00,VWS V14.01,2013-03-23 22:53:00,
2013-03-23 18:58:00,33.2,23.8,30.10,NNW,343,3.0,8.0,68,0.00,,---,0.00,VWS V14.01,2013-03-23 22:58:00,
2013-03-23 19:03:00,33.1,24.0,30.09,NNW,330,2.0,3.0,69,0.00,,---,0.00,VWS V14.01,2013-03-23 23:03:00,
2013-03-23 19:08:00,32.9,23.9,30.10,WNW,291,4.0,6.0,69,0.00,,---,0.00,VWS V14.01,2013-03-23 23:08:00,
2013-03-23 19:13:00,32.6,23.9,30.10,NNW,336,1.0,6.0,70,0.00,,---,0.00,VWS V14.01,2013-03-23 23:13:00,
2013-03-23 19:19:00,32.4,23.7,30.09,NNW,338,2.0,6.0,70,0.00,,---,0.00,VWS V14.01,2013-03-23 23:19:00,
2013-03-23 19:24:00,32.2,23.9,30.09,NNE,21,2.0,6.0,71,0.00,,---,0.00,VWS V14.01,2013-03-23 23:24:00,
2013-03-23 19:29:00,31.9,23.6,30.09,North,1,1.0,6.0,71,0.00,,---,0.00,VWS V14.01,2013-03-23 23:29:00,
2013-03-23 19:34:00,31.7,23.7,30.10,NW,314,1.0,6.0,72,0.00,,---,0.00,VWS V14.01,2013-03-23 23:34:00,
2013-03-23 19:39:00,31.6,23.6,30.09,North,359,1.0,6.0,72,0.00,,---,0.00,VWS V14.01,2013-03-23 23:39:00,
2013-03-23 19:44:00,31.3,23.3,30.09,North,359,0.0,6.0,72,0.00,,---,0.00,VWS V14.01,2013-03-23 23:44:00,
2013-03-23 19:49:00,30.9,23.3,30.09,NNW,328,1.0,6.0,73,0.00,,---,0.00,VWS V14.01,2013-03-23 23:49:00,
2013-03-23 19:54:00,30.6,23.0,30.10,WNW,300,1.0,6.0,73,0.00,,---,0.00,VWS V14.01,2013-03-23 23:54:00,
2013-03-23 19:59:00,30.4,23.1,30.09,North,354,1.0,6.0,74,0.00,,---,0.00,VWS V14.01,2013-03-23 23:59:00,
2013-03-23 20:05:00,30.2,22.9,30.09,NNE,29,1.0,2.0,74,0.00,,---,0.00,VWS V14.01,2013-03-24 00:05:00,
2013-03-23 20:10:00,29.9,23.0,30.09,NNE,29,0.0,2.0,75,0.00,,---,0.00,VWS V14.01,2013-03-24 00:10:00,
2013-03-23 20:15:00,29.6,23.0,30.09,North,6,1.0,2.0,76,0.00,,---,0.00,VWS V14.01,2013-03-24 00:15:00,
2013-03-23 20:20:00,29.5,22.9,30.09,North,358,0.0,2.0,76,0.00,,---,0.00,VWS V14.01,2013-03-24 00:20:00,
2013-03-23 20:25:00,29.2,22.6,30.09,North,360,0.0,2.0,76,0.00,,---,0.00,VWS V14.01,2013-03-24 00:25:00,
2013-03-23 20:30:00,28.9,22.3,30.09,North,359,0.0,2.0,76,0.00,,---,0.00,VWS V14.01,2013-03-24 00:30:00,
2013-03-23 20:35:00,28.4,22.1,30.09,North,359,0.0,2.0,77,0.00,,---,0.00,VWS V14.01,2013-03-24 00:35:00,
2013-03-23 20:40:00,28.0,22.0,30.10,North,358,0.0,2.0,78,0.00,,---,0.00,VWS V14.01,2013-03-24 00:40:00,
2013-03-23 20:46:00,28.0,22.6,30.10,WNW,293,1.0,2.0,80,0.00,,---,0.00,VWS V14.01,2013-03-24 00:46:00,
2013-03-23 20:51:00,28.2,22.8,30.10,WNW,293,0.0,2.0,80,0.00,,---,0.00,VWS V14.01,2013-03-24 00:51:00,
2013-03-23 20:56:00,28.1,22.4,30.10,WNW,294,1.0,2.0,79,0.00,,---,0.00,VWS V14.01,2013-03-24 00:56:00,
2013-03-23 21:01:00,28.1,22.4,30.10,WNW,295,0.0,2.0,79,0.00,,---,0.00,VWS V14.01,2013-03-24 01:01:00,
2013-03-23 21:06:00,28.0,22.6,30.10,WNW,300,0.0,1.0,80,0.00,,---,0.00,VWS V14.01,2013-03-24 01:06:00,
2013-03-23 21:11:00,27.9,22.5,30.10,WNW,302,0.0,1.0,80,0.00,,---,0.00,VWS V14.01,2013-03-24 01:11:00,
2013-03-23 21:16:00,27.7,22.4,30.10,NNW,338,0.0,1.0,80,0.00,,---,0.00,VWS V14.01,2013-03-24 01:16:00,
2013-03-23 21:21:00,27.6,22.2,30.10,NNW,338,0.0,1.0,80,0.00,,---,0.00,VWS V14.01,2013-03-24 01:21:00,
2013-03-23 21:26:00,27.2,21.9,30.10,NNW,338,0.0,1.0,80,0.00,,---,0.00,VWS V14.01,2013-03-24 01:26:00,
2013-03-23 21:31:00,27.1,22.1,30.11,NNW,338,0.0,1.0,81,0.00,,---,0.00,VWS V14.01,2013-03-24 01:31:00,
2013-03-23 21:36:00,26.9,21.9,30.11,NNW,338,0.0,1.0,81,0.00,,---,0.00,VWS V14.01,2013-03-24 01:36:00,
2013-03-23 21:42:00,26.4,21.7,30.11,NNW,338,0.0,1.0,82,0.00,,---,0.00,VWS V14.01,2013-03-24 01:42:00,
2013-03-23 21:47:00,26.3,21.9,30.11,North,6,0.0,1.0,83,0.00,,---,0.00,VWS V14.01,2013-03-24 01:47:00,
2013-03-23 21:52:00,26.4,22.2,30.11,ENE,73,0.0,1.0,84,0.00,,---,0.00,VWS V14.01,2013-03-24 01:52:00,
2013-03-23 21:57:00,26.7,22.5,30.10,ENE,73,1.0,2.0,84,0.00,,---,0.00,VWS V14.01,2013-03-24 01:57:00,
2013-03-23 22:02:00,27.0,22.5,30.10,ENE,70,1.0,1.0,83,0.00,,---,0.00,VWS V14.01,2013-03-24 02:02:00,
2013-03-23 22:07:00,27.0,22.5,30.10,ENE,73,1.0,1.0,83,0.00,,---,0.00,VWS V14.01,2013-03-24 02:07:00,
2013-03-23 22:12:00,26.9,22.4,30.10,ENE,73,0.0,1.0,83,0.00,,---,0.00,VWS V14.01,2013-03-24 02:12:00,
2013-03-23 22:17:00,26.8,22.3,30.10,ENE,73,0.0,2.0,83,0.00,,---,0.00,VWS V14.01,2013-03-24 02:17:00,
2013-03-23 22:22:00,26.7,22.2,30.10,ENE,73,0.0,2.0,83,0.00,,---,0.00,VWS V14.01,2013-03-24 02:22:00,
2013-03-23 22:27:00,26.6,22.1,30.10,ENE,73,1.0,2.0,83,0.00,,---,0.00,VWS V14.01,2013-03-24 02:27:00,
2013-03-23 22:32:00,26.2,22.0,30.10,ENE,73,0.0,2.0,84,0.00,,---,0.00,VWS V14.01,2013-03-24 02:32:00,
2013-03-23 22:37:00,25.9,21.7,30.10,ENE,74,0.0,2.0,84,0.00,,---,0.00,VWS V14.01,2013-03-24 02:37:00,
2013-03-23 22:42:00,25.5,21.4,30.10,ENE,73,0.0,2.0,84,0.00,,---,0.00,VWS V14.01,2013-03-24 02:42:00,
2013-03-23 22:47:00,25.1,21.2,30.10,ENE,74,0.0,2.0,85,0.00,,---,0.00,VWS V14.01,2013-03-24 02:47:00,
2013-03-23 22:53:00,24.8,21.2,30.10,ENE,74,0.0,2.0,86,0.00,,---,0.00,VWS V14.01,2013-03-24 02:53:00,
2013-03-23 22:58:00,24.8,21.5,30.09,ENE,73,0.0,2.0,87,0.00,,---,0.00,VWS V14.01,2013-03-24 02:58:00,
2013-03-23 23:03:00,24.8,21.5,30.10,ENE,73,0.0,0.0,87,0.00,,---,0.00,VWS V14.01,2013-03-24 03:03:00,
2013-03-23 23:08:00,24.6,21.3,30.09,ENE,73,0.0,0.0,87,0.00,,---,0.00,VWS V14.01,2013-03-24 03:08:00,
2013-03-23 23:13:00,24.2,20.9,30.09,ENE,73,0.0,0.0,87,0.00,,---,0.00,VWS V14.01,2013-03-24 03:13:00,
2013-03-23 23:18:00,23.7,20.4,30.10,ENE,74,0.0,0.0,87,0.00,,---,0.00,VWS V14.01,2013-03-24 03:18:00,
2013-03-23 23:23:00,23.2,20.2,30.10,ENE,73,0.0,0.0,88,0.00,,---,0.00,VWS V14.01,2013-03-24 03:23:00,
2013-03-23 23:28:00,22.7,19.4,30.10,ENE,73,0.0,0.0,87,0.00,,---,0.00,VWS V14.01,2013-03-24 03:28:00,
2013-03-23 23:33:00,22.5,19.8,30.10,ENE,73,0.0,0.0,89,0.00,,---,0.00,VWS V14.01,2013-03-24 03:33:00,
2013-03-23 23:38:00,22.9,20.4,30.09,ENE,74,0.0,0.0,90,0.00,,---,0.00,VWS V14.01,2013-03-24 03:38:00,
2013-03-23 23:43:00,23.2,20.7,30.09,East,79,1.0,2.0,90,0.00,,---,0.00,VWS V14.01,2013-03-24 03:43:00,
2013-03-23 23:48:00,23.6,21.1,30.09,ENE,77,1.0,2.0,90,0.00,,---,0.00,VWS V14.01,2013-03-24 03:48:00,
2013-03-23 23:54:00,23.6,21.1,30.09,ENE,77,1.0,2.0,90,0.00,,---,0.00,VWS V14.01,2013-03-24 03:54:00,
2013-03-23 23:59:00,23.7,21.2,30.08,ENE,77,0.0,2.0,90,0.00,,---,0.00,VWS V14.01,2013-03-24 03:59:00,